createdAt,value
2019-02-17T00:00:53.224Z,73.37
2019-02-17T00:03:19.374Z,60.17
2019-02-17T08:34:15.366Z,26.77
2019-02-17T08:36:41.579Z,17.55
2019-02-17T08:39:07.726Z,23.30
2019-02-17T08:41:33.874Z,29.30
2019-02-17T08:44:01.561Z,23.42
2019-02-17T08:46:27.956Z,19.65
2019-02-17T08:48:54.105Z,23.02
2019-02-17T08:51:20.282Z,22.62
2019-02-17T08:53:46.567Z,19.32
2019-02-17T08:56:12.723Z,20.57
2019-02-17T08:58:38.899Z,22.00
2019-02-17T09:01:05.056Z,20.92
2019-02-17T09:03:31.206Z,29.40
2019-02-17T09:05:57.455Z,25.15
2019-02-17T09:08:23.613Z,22.90
2019-02-17T09:10:49.760Z,24.37
2019-02-17T09:13:18.403Z,21.48
2019-02-17T09:15:43.883Z,24.63
2019-02-17T09:18:10.029Z,18.87
2019-02-17T09:20:36.265Z,17.12
2019-02-17T09:23:02.413Z,22.15
2019-02-17T09:25:28.799Z,25.05
2019-02-17T09:27:54.972Z,17.65
2019-02-17T09:30:21.122Z,17.55
2019-02-17T09:32:47.291Z,17.62
2019-02-17T09:35:13.568Z,17.80
2019-02-17T09:37:39.711Z,21.02
2019-02-17T09:40:05.867Z,20.80
2019-02-17T09:42:32.033Z,19.75
2019-02-17T09:44:58.262Z,32.53
2019-02-17T09:47:24.491Z,25.00
2019-02-17T09:49:50.667Z,28.45
2019-02-17T09:52:16.819Z,30.35
2019-02-17T09:54:43.080Z,23.85
2019-02-17T09:57:09.247Z,21.15
2019-02-17T09:59:35.432Z,25.35
2019-02-17T10:02:01.587Z,23.47
2019-02-17T10:04:27.761Z,24.35
2019-02-17T10:06:53.967Z,27.40
2019-02-17T10:09:20.117Z,20.37
2019-02-17T10:11:46.413Z,20.68
2019-02-17T10:14:12.565Z,26.10
2019-02-17T10:16:38.797Z,23.47
2019-02-17T10:19:04.970Z,29.10
2019-02-17T10:21:31.120Z,21.93
2019-02-17T10:23:57.277Z,22.60
2019-02-17T10:26:23.538Z,31.05
2019-02-17T10:28:49.734Z,29.67
2019-02-17T10:31:15.884Z,24.52
2019-02-17T10:33:42.149Z,23.87
2019-02-17T10:36:08.320Z,32.15
2019-02-17T10:38:34.466Z,27.73
2019-02-17T10:41:00.854Z,32.55
2019-02-17T10:43:27.018Z,34.40
2019-02-17T10:45:53.241Z,27.13
2019-02-17T10:48:19.580Z,27.87
2019-02-17T10:50:45.727Z,26.87
2019-02-17T10:53:11.902Z,32.35
2019-02-17T10:55:38.053Z,25.23
2019-02-17T10:58:04.212Z,36.93
2019-02-17T11:00:30.398Z,32.53
2019-02-17T11:02:56.547Z,38.92
2019-02-17T11:05:22.769Z,32.85
2019-02-17T11:07:48.961Z,25.30
2019-02-17T11:10:15.114Z,25.15
2019-02-17T11:12:41.268Z,28.90
2019-02-17T11:15:07.510Z,33.15
2019-02-17T11:17:33.667Z,25.92
2019-02-17T11:19:59.813Z,28.35
2019-02-17T11:22:25.989Z,28.60
2019-02-17T11:24:52.199Z,32.35
2019-02-17T11:27:18.393Z,29.67
2019-02-17T11:29:44.571Z,28.98
2019-02-17T11:32:10.720Z,36.08
2019-02-17T11:34:36.913Z,30.95
2019-02-17T11:37:03.089Z,46.55
2019-02-17T11:39:29.242Z,32.70
2019-02-17T11:41:55.392Z,29.65
2019-02-17T11:44:21.585Z,28.62
2019-02-17T11:46:48.005Z,32.73
2019-02-17T11:49:14.454Z,24.77
2019-02-17T11:51:40.906Z,27.70
2019-02-17T11:54:07.054Z,24.27
2019-02-17T11:56:33.371Z,24.37
2019-02-17T11:58:59.539Z,23.25
2019-02-17T12:01:25.934Z,32.50
2019-02-17T12:03:52.252Z,32.20
2019-02-17T12:06:18.689Z,31.77
2019-02-17T12:08:44.835Z,31.52
2019-02-17T12:11:11.533Z,22.02
2019-02-17T12:13:37.703Z,21.15
2019-02-17T12:16:04.110Z,19.85
2019-02-17T12:18:30.262Z,19.07
2019-02-17T12:20:56.459Z,72.17
2019-02-17T12:23:22.610Z,34.55
2019-02-17T12:25:48.850Z,57.53
2019-02-17T12:28:15.023Z,44.03
2019-02-17T12:30:41.171Z,44.63
2019-02-17T12:33:17.738Z,24.72
2019-02-17T12:35:35.264Z,19.67
2019-02-17T12:38:01.420Z,17.00
2019-02-17T12:40:27.578Z,14.80
2019-02-17T12:42:53.773Z,16.30
2019-02-17T12:45:20.011Z,18.70
2019-02-17T12:47:46.165Z,15.50
2019-02-17T12:50:12.355Z,16.75
2019-02-17T12:52:46.807Z,14.87
2019-02-17T12:55:06.470Z,15.98
2019-02-17T12:57:32.645Z,19.12
2019-02-17T12:59:58.800Z,15.00
2019-02-17T13:02:24.950Z,16.55
2019-02-17T13:04:51.208Z,14.83
2019-02-17T13:07:17.357Z,13.55
2019-02-17T13:09:43.505Z,15.70
2019-02-17T13:12:09.688Z,16.90
2019-02-17T13:14:35.895Z,14.78
2019-02-17T13:17:02.055Z,14.43
2019-02-17T13:19:28.228Z,12.45
2019-02-17T13:21:54.391Z,13.00
2019-02-17T13:24:20.601Z,12.13
2019-02-17T13:26:46.777Z,14.68
2019-02-17T13:29:12.921Z,15.40
2019-02-17T13:31:39.071Z,12.75
2019-02-17T13:34:05.245Z,15.03
2019-02-17T13:36:31.396Z,9.03
2019-02-17T13:38:57.547Z,18.60
2019-02-17T13:41:23.737Z,10.55
2019-02-17T13:43:49.887Z,11.95
2019-02-17T13:46:16.043Z,9.85
2019-02-17T13:48:42.235Z,10.13
2019-02-17T13:51:08.383Z,9.45
2019-02-17T13:53:34.535Z,13.38
2019-02-17T13:56:02.744Z,13.40
2019-02-17T13:58:28.912Z,10.50
2019-02-17T14:00:55.070Z,10.55
2019-02-17T14:03:21.251Z,8.58
2019-02-17T14:05:47.420Z,9.35
2019-02-17T14:08:13.568Z,9.73
2019-02-17T14:10:39.753Z,11.85
2019-02-17T14:13:05.901Z,11.15
2019-02-17T14:15:32.133Z,10.95
2019-02-17T14:17:58.300Z,9.58
2019-02-17T14:20:24.456Z,10.58
2019-02-17T14:22:50.611Z,7.28
2019-02-17T14:25:16.890Z,7.42
2019-02-17T14:27:43.049Z,9.73
2019-02-17T14:30:09.204Z,11.60
2019-02-17T14:32:35.415Z,10.38
2019-02-17T14:35:01.571Z,8.68
2019-02-17T14:37:27.705Z,8.40
2019-02-17T14:39:53.896Z,9.48
2019-02-17T14:42:20.053Z,8.50
2019-02-17T14:44:46.272Z,8.65
2019-02-17T14:47:12.455Z,10.32
2019-02-17T14:49:38.612Z,10.85
2019-02-17T14:52:04.767Z,9.55
2019-02-17T14:54:31.017Z,9.63
2019-02-17T14:56:57.165Z,8.55
2019-02-17T14:59:23.312Z,12.82
2019-02-17T15:01:49.498Z,9.50
2019-02-17T15:04:15.701Z,10.50
2019-02-17T15:06:41.855Z,9.38
2019-02-17T15:09:08.037Z,10.38
2019-02-17T15:11:34.192Z,12.05
2019-02-17T15:14:00.410Z,8.03
2019-02-17T15:16:26.582Z,9.25
2019-02-17T15:18:52.739Z,10.28
2019-02-17T15:21:18.888Z,9.33
2019-02-17T15:23:45.068Z,8.98
2019-02-17T15:26:11.225Z,11.83
2019-02-17T15:28:37.382Z,7.65
2019-02-17T15:31:03.564Z,12.53
2019-02-17T15:33:29.738Z,11.63
2019-02-17T15:35:55.885Z,10.50
2019-02-17T15:38:22.055Z,10.10
2019-02-17T15:40:48.201Z,13.88
2019-02-17T15:43:14.350Z,10.70
2019-02-17T15:45:40.502Z,12.23
2019-02-17T15:48:06.668Z,9.43
2019-02-17T15:50:32.815Z,12.55
2019-02-17T15:52:58.966Z,14.87
2019-02-17T15:55:25.223Z,22.00
2019-02-17T15:57:51.372Z,24.35
2019-02-17T16:00:17.523Z,15.98
2019-02-17T16:02:43.696Z,14.93
2019-02-17T16:05:09.900Z,20.20
2019-02-17T16:07:36.049Z,23.52
2019-02-17T16:10:03.815Z,17.23
2019-02-17T16:12:30.059Z,19.10
2019-02-17T16:14:56.259Z,17.92
2019-02-17T16:17:22.446Z,13.72
2019-02-17T16:19:48.611Z,13.00
2019-02-17T16:22:14.821Z,18.55
2019-02-17T16:24:41.096Z,15.80
2019-02-17T16:27:07.252Z,13.28
2019-02-17T16:29:33.403Z,16.00
2019-02-17T16:31:59.573Z,17.90
2019-02-17T16:34:25.796Z,15.00
2019-02-17T16:36:51.920Z,15.32
2019-02-17T16:39:18.096Z,14.03
2019-02-17T16:41:44.249Z,18.45
2019-02-17T16:44:10.483Z,12.40
2019-02-17T16:46:36.664Z,18.23
2019-02-17T16:49:02.814Z,17.35
2019-02-17T16:51:28.969Z,17.82
2019-02-17T16:53:55.227Z,22.25
2019-02-17T16:56:21.378Z,20.45
2019-02-17T16:58:47.519Z,17.75
2019-02-17T17:01:13.692Z,18.92
2019-02-17T17:03:39.844Z,18.57
2019-02-17T17:06:05.996Z,16.57
2019-02-17T17:08:32.168Z,18.98
2019-02-17T17:10:58.320Z,20.08
2019-02-17T17:14:09.083Z,19.55
2019-02-17T17:16:35.403Z,10.00
2019-02-17T17:19:01.541Z,6.00
2019-02-17T17:21:28.703Z,11.68
2019-02-17T17:23:55.133Z,6.83
2019-02-17T17:26:21.422Z,13.03
2019-02-17T17:28:47.760Z,7.15
2019-02-17T17:31:13.907Z,9.88
2019-02-17T17:33:40.189Z,8.13
2019-02-17T17:36:06.367Z,7.22
2019-02-17T17:38:32.511Z,9.38
2019-02-17T17:40:58.661Z,12.20
2019-02-17T17:43:24.848Z,13.50
2019-02-17T17:45:51.016Z,24.30
2019-02-17T17:48:17.165Z,15.88
2019-02-17T17:50:43.336Z,18.00
2019-02-17T17:53:09.493Z,16.15
2019-02-17T17:55:35.689Z,21.05
2019-02-17T17:58:01.861Z,21.12
2019-02-17T18:00:28.022Z,19.55
2019-02-17T18:02:54.179Z,16.62
2019-02-17T18:05:20.433Z,14.83
2019-02-17T18:07:46.572Z,16.48
2019-02-17T18:10:12.725Z,13.70
2019-02-17T18:12:38.895Z,22.13
2019-02-17T18:15:05.306Z,16.37
2019-02-17T18:17:31.374Z,19.20
2019-02-17T18:19:57.747Z,21.80
2019-02-17T18:22:23.893Z,15.80
2019-02-17T18:24:50.130Z,16.65
2019-02-17T18:27:16.300Z,21.85
2019-02-17T18:29:42.456Z,15.00
2019-02-17T18:32:08.607Z,22.30
2019-02-17T18:34:34.875Z,19.10
2019-02-17T18:37:03.109Z,15.38
2019-02-17T18:39:29.265Z,20.55
2019-02-17T18:41:55.443Z,15.55
2019-02-17T18:44:21.637Z,18.27
2019-02-17T18:46:47.783Z,11.57
2019-02-17T18:49:13.959Z,19.48
2019-02-17T18:51:41.720Z,13.50
2019-02-17T18:54:08.158Z,9.43
2019-02-17T18:56:34.339Z,12.75
2019-02-17T18:59:00.491Z,17.00
2019-02-17T19:01:26.644Z,21.55
2019-02-17T19:03:52.905Z,13.95
2019-02-17T19:06:19.052Z,13.05
2019-02-17T19:08:45.197Z,16.52
2019-02-17T19:11:11.373Z,19.07
2019-02-17T19:13:37.532Z,15.72
2019-02-17T19:16:03.675Z,15.78
2019-02-17T19:18:30.005Z,14.23
2019-02-17T19:20:56.186Z,15.58
2019-02-17T19:23:22.457Z,16.77
2019-02-17T19:25:48.797Z,14.45
2019-02-17T19:28:15.021Z,17.00
2019-02-17T19:30:41.188Z,17.20
2019-02-17T19:33:07.411Z,12.93
2019-02-17T19:35:41.364Z,13.62
2019-02-17T19:38:01.527Z,11.35
2019-02-17T19:40:27.716Z,15.40
2019-02-17T19:42:53.892Z,12.05
2019-02-17T19:45:20.155Z,8.85
2019-02-17T19:47:46.490Z,14.60
2019-02-17T19:50:12.730Z,15.28
2019-02-17T19:52:38.919Z,12.13
2019-02-17T19:55:05.200Z,18.07
2019-02-17T19:57:31.407Z,10.48
2019-02-17T19:59:57.559Z,12.68
2019-02-17T20:02:23.989Z,13.15
2019-02-17T20:04:50.911Z,15.93
2019-02-17T20:07:17.273Z,16.45
2019-02-17T20:09:43.582Z,14.00
2019-02-17T20:12:09.742Z,10.58
2019-02-17T20:14:35.887Z,12.82
2019-02-17T20:17:02.185Z,14.50
2019-02-17T20:19:28.332Z,16.60
2019-02-17T20:21:54.481Z,16.67
2019-02-17T20:24:20.881Z,15.93
2019-02-17T20:26:47.215Z,11.93
2019-02-17T20:29:13.513Z,19.77
2019-02-17T20:31:39.686Z,17.57
2019-02-17T20:34:05.912Z,14.10
2019-02-17T20:36:32.219Z,10.63
2019-02-17T20:38:58.416Z,15.23
2019-02-17T20:41:24.564Z,14.07
2019-02-17T20:43:50.732Z,21.20
2019-02-17T20:46:16.913Z,16.97
2019-02-17T20:48:43.083Z,18.82
2019-02-17T20:51:09.233Z,25.02
2019-02-17T20:53:35.485Z,21.42
2019-02-17T20:56:01.641Z,21.93
2019-02-17T20:58:27.792Z,15.03
2019-02-17T21:00:54.215Z,19.75
2019-02-17T21:03:20.657Z,19.12
2019-02-17T21:05:47.027Z,14.07
2019-02-17T21:08:13.226Z,14.23
2019-02-17T21:10:39.533Z,14.20
2019-02-17T21:13:05.712Z,19.80
2019-02-17T21:15:31.982Z,16.80
2019-02-17T21:17:58.153Z,17.37
2019-02-17T21:20:24.457Z,31.70
2019-02-17T21:22:52.962Z,15.10
2019-02-17T21:25:18.550Z,13.70
2019-02-17T21:27:44.860Z,17.37
2019-02-17T21:30:11.054Z,14.70
2019-02-17T21:32:37.203Z,13.45
2019-02-17T21:35:03.351Z,16.20
2019-02-17T21:37:29.526Z,20.85
2019-02-17T21:39:55.673Z,15.60
2019-02-17T21:42:21.824Z,15.80
2019-02-17T21:44:48.040Z,16.27
2019-02-17T21:47:14.188Z,17.20
2019-02-17T21:49:40.341Z,15.85
2019-02-17T21:52:06.516Z,19.80
2019-02-17T21:54:32.709Z,14.63
2019-02-17T21:56:58.864Z,16.35
2019-02-17T21:59:25.015Z,16.00
2019-02-17T22:01:51.199Z,17.25
2019-02-17T22:04:17.420Z,16.62
2019-02-17T22:06:43.569Z,15.45
2019-02-17T22:09:09.741Z,12.60
2019-02-17T22:11:35.891Z,15.72
2019-02-17T22:14:02.037Z,18.40
2019-02-17T22:16:28.200Z,20.30
2019-02-17T22:18:54.346Z,14.23
2019-02-17T22:21:20.518Z,14.80
2019-02-17T22:23:46.745Z,16.65
2019-02-17T22:26:12.904Z,19.67
2019-02-17T22:28:39.069Z,16.85
2019-02-17T22:31:05.216Z,16.67
2019-02-17T22:33:31.456Z,15.68
2019-02-17T22:35:57.624Z,17.60
2019-02-17T22:38:23.773Z,19.48
2019-02-17T22:40:49.925Z,19.62
2019-02-17T22:43:16.205Z,75.90
2019-02-17T22:45:42.355Z,96.78
2019-02-17T22:48:08.503Z,25.82
2019-02-17T22:50:34.694Z,25.77
2019-02-17T22:53:00.892Z,22.02
2019-02-17T22:55:27.193Z,21.97
2019-02-17T22:57:53.548Z,21.00
2019-02-17T23:00:19.869Z,30.35
